Terminal Aerodrome Forecast
Issued by NWS Cleveland, OH

Home | Current Version | Previous Version | Graphics & Text | Print | Product List | Glossary On
Versions: 1 2 3 4 5 6 7 8 9 10 11 12 13 14 15 16
000
FTUS41 KCLE 250118 AAA
TAFYNG
TAF AMD
KYNG 250118Z 2501/2524 19008KT P6SM BKN045 OVC100
      TEMPO 2505/2508 4SM -TSRA OVC025CB
     FM250800 22008KT P6SM BKN035 BKN100
     FM251000 22006KT 4SM BR SCT015
     FM251300 22010KT P6SM BKN015
     FM251600 22010G20KT P6SM BKN040
     FM252200 24010G30KT 3SM TSRA OVC025CB=

USA.gov is the U.S. government's official web portal to all federal, state and local government web resources and services.